createdAt,value
2023-04-07T00:00:27.951Z,4.77
2023-04-07T00:02:32.750Z,4.77
2023-04-07T00:04:36.228Z,4.77
2023-04-07T00:06:40.640Z,4.30
2023-04-07T00:08:43.524Z,5.57
2023-04-07T00:10:47.113Z,4.87
2023-04-07T00:12:50.325Z,4.17
2023-04-07T00:14:54.785Z,4.47
2023-04-07T00:16:58.091Z,5.33
2023-04-07T00:19:01.109Z,5.30
2023-04-07T00:21:04.637Z,4.90
2023-04-07T00:23:07.566Z,5.00
2023-04-07T00:25:11.030Z,4.50
2023-04-07T00:27:13.858Z,4.93
2023-04-07T00:29:16.988Z,5.63
2023-04-07T00:31:21.416Z,4.60
2023-04-07T00:33:24.344Z,4.60
2023-04-07T00:35:27.735Z,5.10
2023-04-07T00:37:30.867Z,4.73
2023-04-07T00:39:34.009Z,4.70
2023-04-07T00:41:36.982Z,5.10
2023-04-07T00:43:40.288Z,4.60
2023-04-07T00:45:43.444Z,5.23
2023-04-07T00:47:48.147Z,4.30
2023-04-07T00:49:51.149Z,5.10
2023-04-07T00:51:54.075Z,4.57
2023-04-07T00:53:57.526Z,4.40
2023-04-07T00:56:00.745Z,5.20
2023-04-07T00:58:05.077Z,4.90
2023-04-07T01:00:09.229Z,4.80
2023-04-07T01:02:15.668Z,4.57
2023-04-07T01:04:26.882Z,5.00
2023-04-07T01:06:32.956Z,4.63
2023-04-07T01:08:47.874Z,4.90
2023-04-07T01:10:53.343Z,4.83
2023-04-07T01:13:03.438Z,5.10
2023-04-07T01:15:09.957Z,4.93
2023-04-07T01:17:17.460Z,4.43
2023-04-07T01:19:33.654Z,5.00
2023-04-07T01:21:36.910Z,4.60
2023-04-07T01:23:53.747Z,4.30
2023-04-07T01:26:08.503Z,4.10
2023-04-07T01:28:24.970Z,4.97
2023-04-07T01:30:30.937Z,4.70
2023-04-07T01:32:36.086Z,5.07
2023-04-07T01:34:39.848Z,5.03
2023-04-07T01:36:43.706Z,5.20
2023-04-07T01:38:47.180Z,5.17
2023-04-07T01:40:51.193Z,5.60
2023-04-07T01:42:54.617Z,4.43
2023-04-07T01:44:57.703Z,4.70
2023-04-07T01:47:03.010Z,5.77
2023-04-07T01:49:06.410Z,5.00
2023-04-07T01:51:12.098Z,5.03
2023-04-07T01:53:15.688Z,5.43
2023-04-07T01:55:18.588Z,5.57
2023-04-07T01:57:33.685Z,5.30
2023-04-07T01:59:42.357Z,5.30
2023-04-07T02:01:45.459Z,5.67
2023-04-07T02:03:54.388Z,6.10
2023-04-07T02:06:00.468Z,5.30
2023-04-07T02:08:07.184Z,6.20
2023-04-07T02:10:14.947Z,6.63
2023-04-07T02:12:18.399Z,6.47
2023-04-07T02:14:32.841Z,6.60
2023-04-07T02:16:41.842Z,6.93
2023-04-07T02:18:46.726Z,6.67
2023-04-07T02:20:52.032Z,6.40
2023-04-07T02:22:55.894Z,6.57
2023-04-07T02:24:59.082Z,6.63
2023-04-07T02:27:03.404Z,7.13
2023-04-07T02:29:06.480Z,6.87
2023-04-07T02:31:09.655Z,7.80
2023-04-07T02:33:12.936Z,7.00
2023-04-07T02:35:16.163Z,7.80
2023-04-07T02:37:20.455Z,9.33
2023-04-07T02:39:23.566Z,6.83
2023-04-07T02:41:26.722Z,7.70
2023-04-07T02:43:29.771Z,9.07
2023-04-07T02:45:33.399Z,7.77
2023-04-07T02:47:36.933Z,8.47
2023-04-07T02:49:40.066Z,8.50
2023-04-07T02:51:43.019Z,8.70
2023-04-07T02:53:47.701Z,8.17
2023-04-07T02:55:50.672Z,8.40
2023-04-07T02:57:53.538Z,9.10
2023-04-07T03:00:22.390Z,8.33
2023-04-07T03:02:39.519Z,8.60
2023-04-07T03:04:42.831Z,8.60
2023-04-07T03:06:45.847Z,9.37
2023-04-07T03:08:52.767Z,8.83
2023-04-07T03:10:56.090Z,9.00
2023-04-07T03:13:04.224Z,8.90
2023-04-07T03:15:09.756Z,9.10
2023-04-07T03:17:13.464Z,9.37
2023-04-07T03:19:17.514Z,7.93
2023-04-07T03:21:23.672Z,9.40
2023-04-07T03:23:28.769Z,9.80
2023-04-07T03:25:35.951Z,8.83
2023-04-07T03:27:39.603Z,7.27
2023-04-07T03:29:45.065Z,8.33
2023-04-07T03:31:50.299Z,8.70
2023-04-07T03:33:57.324Z,8.00
2023-04-07T03:36:01.533Z,7.63
2023-04-07T03:38:05.652Z,9.20
2023-04-07T03:40:09.659Z,8.77
2023-04-07T03:42:14.229Z,9.67
2023-04-07T03:44:18.014Z,9.60
2023-04-07T03:46:21.858Z,8.20
2023-04-07T03:48:27.475Z,9.07
2023-04-07T03:50:38.271Z,9.10
2023-04-07T03:52:49.725Z,9.17
2023-04-07T03:55:00.644Z,10.20
2023-04-07T03:57:07.564Z,8.77
2023-04-07T03:59:17.495Z,9.83
2023-04-07T04:01:29.274Z,7.97
2023-04-07T04:03:34.381Z,9.63
2023-04-07T04:05:58.792Z,9.53
2023-04-07T04:08:05.819Z,9.37
2023-04-07T04:10:12.302Z,8.47
2023-04-07T04:12:19.161Z,8.30
2023-04-07T04:14:37.064Z,9.03
2023-04-07T04:16:41.940Z,7.93
2023-04-07T04:18:58.980Z,9.17
2023-04-07T04:21:09.763Z,9.23
2023-04-07T04:23:15.957Z,9.37
2023-04-07T04:25:19.405Z,9.50
2023-04-07T04:27:26.919Z,10.40
2023-04-07T04:29:39.456Z,10.53
2023-04-07T04:31:45.951Z,10.43
2023-04-07T04:33:50.938Z,10.23
2023-04-07T04:35:54.052Z,10.70
2023-04-07T04:37:57.749Z,10.40
2023-04-07T04:40:01.280Z,9.60
2023-04-07T04:42:05.202Z,9.03
2023-04-07T04:44:12.377Z,8.53
2023-04-07T04:46:19.571Z,8.43
2023-04-07T04:48:23.670Z,8.17
2023-04-07T04:50:26.537Z,8.30
2023-04-07T04:52:30.084Z,7.20
2023-04-07T04:54:33.317Z,8.40
2023-04-07T04:56:36.951Z,8.33
2023-04-07T04:58:42.186Z,9.00
2023-04-07T05:00:47.446Z,7.90
2023-04-07T05:02:52.228Z,9.30
2023-04-07T05:04:55.765Z,8.50
2023-04-07T05:07:03.028Z,8.67
2023-04-07T05:09:07.463Z,7.80
2023-04-07T05:11:17.841Z,7.70
2023-04-07T05:13:25.802Z,7.93
2023-04-07T05:15:29.419Z,7.10
2023-04-07T05:17:33.298Z,8.23
2023-04-07T05:19:39.809Z,8.30
2023-04-07T05:21:51.815Z,8.20
2023-04-07T05:23:57.171Z,7.90
2023-04-07T05:26:00.536Z,7.33
2023-04-07T05:28:03.468Z,7.03
2023-04-07T05:30:07.792Z,7.40
2023-04-07T05:32:11.636Z,8.70
2023-04-07T05:34:14.628Z,8.70
2023-04-07T05:36:25.607Z,8.33
2023-04-07T05:38:32.129Z,8.60
2023-04-07T05:40:42.265Z,7.50
2023-04-07T05:42:48.258Z,8.37
2023-04-07T05:44:51.698Z,8.43
2023-04-07T05:50:32.053Z,8.03
2023-04-07T05:52:40.025Z,8.70
2023-04-07T05:54:54.349Z,6.23
2023-04-07T05:56:59.570Z,8.40
2023-04-07T05:59:04.792Z,8.60
2023-04-07T06:01:08.634Z,6.70
2023-04-07T06:03:11.668Z,7.70
2023-04-07T06:05:34.704Z,8.60
2023-04-07T06:07:39.505Z,9.70
2023-04-07T06:09:43.265Z,8.47
2023-04-07T06:11:47.105Z,9.30
2023-04-07T06:13:51.601Z,10.30
2023-04-07T06:15:56.339Z,9.97
2023-04-07T06:17:59.399Z,10.80
2023-04-07T06:20:02.470Z,12.30
2023-04-07T06:22:08.934Z,10.93
2023-04-07T06:24:15.530Z,11.67
2023-04-07T06:26:18.461Z,13.70
2023-04-07T06:28:22.063Z,12.60
2023-04-07T06:30:25.322Z,13.90
2023-04-07T06:32:28.540Z,14.50
2023-04-07T06:34:33.516Z,14.87
2023-04-07T06:36:36.535Z,15.17
2023-04-07T06:38:39.893Z,14.10
2023-04-07T06:40:44.214Z,12.83
2023-04-07T06:42:47.584Z,14.17
2023-04-07T06:45:01.532Z,12.53
2023-04-07T06:47:04.598Z,11.97
2023-04-07T06:49:07.440Z,12.03
2023-04-07T06:51:10.467Z,12.73
2023-04-07T06:53:13.679Z,12.93
2023-04-07T06:55:16.921Z,13.00
2023-04-07T06:57:21.166Z,13.40
2023-04-07T06:59:24.063Z,13.10
2023-04-07T07:01:28.031Z,12.77
2023-04-07T07:03:31.891Z,12.60
2023-04-07T07:05:34.826Z,12.13
2023-04-07T07:07:37.738Z,12.40
2023-04-07T07:09:40.768Z,12.53
2023-04-07T07:11:43.712Z,11.37
2023-04-07T07:13:48.301Z,12.47
2023-04-07T07:15:51.980Z,12.00
2023-04-07T07:17:55.119Z,12.77
2023-04-07T07:19:58.324Z,11.90
2023-04-07T07:22:04.110Z,11.70
2023-04-07T07:24:07.701Z,12.60
2023-04-07T07:26:10.821Z,11.23
2023-04-07T07:28:13.784Z,11.03
2023-04-07T07:30:18.159Z,11.93
2023-04-07T07:32:21.568Z,10.80
2023-04-07T07:34:24.525Z,10.83
2023-04-07T07:36:27.626Z,12.10
2023-04-07T07:38:30.642Z,11.03
2023-04-07T07:40:33.602Z,11.23
2023-04-07T07:42:36.540Z,12.00
2023-04-07T07:44:39.527Z,10.57
2023-04-07T07:46:43.894Z,10.00
2023-04-07T07:48:47.107Z,10.70
2023-04-07T07:50:50.730Z,11.83
2023-04-07T07:52:53.785Z,10.90
2023-04-07T07:54:56.670Z,11.77
2023-04-07T07:56:59.561Z,11.73
2023-04-07T07:59:02.796Z,10.53
2023-04-07T08:01:08.248Z,10.33
2023-04-07T08:03:12.835Z,10.33
2023-04-07T08:05:16.033Z,10.43
2023-04-07T08:07:18.888Z,10.60
2023-04-07T08:09:22.241Z,11.30
2023-04-07T08:11:25.359Z,11.03
2023-04-07T08:13:28.420Z,11.57
2023-04-07T08:15:31.456Z,10.40
2023-04-07T08:17:34.400Z,11.10
2023-04-07T08:19:38.759Z,10.00
2023-04-07T08:21:41.681Z,11.37
2023-04-07T08:23:44.799Z,10.30
2023-04-07T08:25:47.738Z,11.37
2023-04-07T08:27:50.664Z,10.43
2023-04-07T08:30:00.516Z,12.33
2023-04-07T08:32:03.521Z,12.30
2023-04-07T08:34:06.974Z,10.50
2023-04-07T08:36:11.321Z,10.37
2023-04-07T08:38:14.285Z,9.87
2023-04-07T08:40:17.462Z,8.40
2023-04-07T08:42:21.154Z,9.20
2023-04-07T08:44:24.577Z,8.60
2023-04-07T08:46:27.910Z,8.70
2023-04-07T08:48:33.979Z,9.73
2023-04-07T08:50:37.359Z,10.40
2023-04-07T08:52:46.657Z,9.67
2023-04-07T08:54:49.756Z,10.60
2023-04-07T08:56:53.003Z,11.10
2023-04-07T08:58:56.063Z,11.00
2023-04-07T09:00:59.480Z,10.90
2023-04-07T09:03:03.716Z,10.53
2023-04-07T09:05:08.872Z,10.20
2023-04-07T09:07:11.812Z,11.17
2023-04-07T09:09:16.448Z,10.90
2023-04-07T09:11:19.660Z,14.20
2023-04-07T09:13:23.413Z,15.27
2023-04-07T09:15:26.744Z,15.03
2023-04-07T09:17:30.406Z,16.00
2023-04-07T09:19:34.360Z,16.70
2023-04-07T09:21:51.294Z,20.47
2023-04-07T09:23:54.324Z,17.37
2023-04-07T09:26:00.264Z,16.60
2023-04-07T09:28:04.198Z,14.83
2023-04-07T09:30:14.993Z,14.87
2023-04-07T09:32:38.637Z,13.60
2023-04-07T09:34:42.688Z,14.00
2023-04-07T09:36:45.664Z,14.23
2023-04-07T09:38:51.455Z,15.50
2023-04-07T09:41:09.004Z,13.13
2023-04-07T09:43:16.855Z,11.23
2023-04-07T09:45:33.773Z,12.10
2023-04-07T09:47:38.251Z,11.07
2023-04-07T09:49:52.586Z,12.43
2023-04-07T09:51:57.552Z,11.83
2023-04-07T09:54:00.805Z,13.30
2023-04-07T09:56:04.310Z,10.70
2023-04-07T09:58:09.071Z,9.60
2023-04-07T10:00:12.773Z,9.27
2023-04-07T10:02:18.899Z,8.50
2023-04-07T10:04:22.441Z,7.40
2023-04-07T10:06:27.625Z,7.97
2023-04-07T10:08:32.967Z,7.13
2023-04-07T10:10:37.633Z,5.67
2023-04-07T10:12:41.492Z,5.87
2023-04-07T10:14:48.632Z,5.90
2023-04-07T10:16:52.114Z,6.00
2023-04-07T10:18:55.334Z,8.10
2023-04-07T10:20:58.987Z,8.63
2023-04-07T10:23:08.158Z,9.20
2023-04-07T10:25:13.292Z,9.63
2023-04-07T10:27:20.802Z,11.67
2023-04-07T10:29:25.289Z,8.90
2023-04-07T10:31:30.112Z,8.53
2023-04-07T10:33:53.125Z,6.33
2023-04-07T10:36:06.037Z,7.43
2023-04-07T10:38:15.255Z,10.07
2023-04-07T10:40:31.330Z,8.40
2023-04-07T10:42:57.771Z,9.00
2023-04-07T10:45:02.681Z,8.60
2023-04-07T10:47:07.682Z,7.47
2023-04-07T10:49:11.397Z,8.93
2023-04-07T10:51:18.894Z,9.93
2023-04-07T10:53:22.628Z,8.53
2023-04-07T10:55:34.180Z,9.90
2023-04-07T10:57:37.741Z,8.43
2023-04-07T10:59:43.440Z,8.27
2023-04-07T11:01:46.468Z,7.20
2023-04-07T11:04:05.160Z,7.57
2023-04-07T11:06:09.576Z,7.03
2023-04-07T11:08:12.574Z,7.40
2023-04-07T11:10:16.980Z,6.80
2023-04-07T11:12:26.517Z,7.27
2023-04-07T11:14:30.770Z,7.17
2023-04-07T11:16:41.826Z,7.70
2023-04-07T11:18:46.013Z,6.60
2023-04-07T11:20:53.208Z,6.70
2023-04-07T11:23:01.522Z,6.90
2023-04-07T11:25:04.861Z,7.00
2023-04-07T11:27:11.139Z,7.20
2023-04-07T11:29:14.904Z,6.90
2023-04-07T11:31:24.554Z,6.30
2023-04-07T11:33:29.976Z,6.40
2023-04-07T11:35:34.192Z,7.10
2023-04-07T11:37:38.845Z,6.30
2023-04-07T11:39:42.621Z,6.43
2023-04-07T11:41:47.965Z,5.93
2023-04-07T11:43:51.285Z,6.10
2023-04-07T11:46:08.114Z,5.47
2023-04-07T11:48:30.369Z,5.70
2023-04-07T11:50:40.972Z,6.20
2023-04-07T11:52:46.172Z,6.87
2023-04-07T11:54:50.471Z,4.63
2023-04-07T11:56:55.692Z,4.60
2023-04-07T11:58:59.144Z,4.27
2023-04-07T12:01:06.788Z,5.20
2023-04-07T12:03:14.748Z,4.17
2023-04-07T12:05:18.230Z,3.17
2023-04-07T12:07:21.354Z,3.40
2023-04-07T12:09:30.537Z,3.30
2023-04-07T12:11:34.339Z,3.10
2023-04-07T12:13:37.981Z,3.20
2023-04-07T12:15:40.947Z,3.50
2023-04-07T12:17:47.901Z,3.50
2023-04-07T12:19:51.389Z,3.33
2023-04-07T12:21:57.156Z,3.37
2023-04-07T12:24:00.115Z,2.80
2023-04-07T12:26:04.615Z,2.63
2023-04-07T12:28:07.880Z,1.83
2023-04-07T12:30:11.509Z,1.90
2023-04-07T12:32:14.543Z,2.00
2023-04-07T12:34:17.634Z,1.90
2023-04-07T12:36:21.246Z,1.87
2023-04-07T12:38:24.560Z,1.77
2023-04-07T12:40:27.498Z,2.00
2023-04-07T12:42:31.875Z,1.97
2023-04-07T12:44:34.874Z,2.20
2023-04-07T12:46:39.266Z,1.90
2023-04-07T12:48:43.386Z,1.90
2023-04-07T12:50:46.310Z,1.60
2023-04-07T12:52:49.592Z,1.63
2023-04-07T12:54:53.456Z,1.80
2023-04-07T12:56:57.203Z,1.70
2023-04-07T12:59:01.553Z,1.40
2023-04-07T13:01:04.469Z,1.93
2023-04-07T13:03:07.575Z,1.67
2023-04-07T13:05:11.434Z,2.00
2023-04-07T13:07:15.198Z,1.40
2023-04-07T13:09:18.246Z,1.90
2023-04-07T13:11:21.904Z,1.60
2023-04-07T13:13:25.523Z,1.90
2023-04-07T13:15:30.365Z,1.70
2023-04-07T13:17:33.464Z,1.60
2023-04-07T13:19:37.514Z,1.33
2023-04-07T13:21:46.674Z,1.80
2023-04-07T13:23:51.637Z,1.70
2023-04-07T13:25:54.576Z,1.90
2023-04-07T13:27:57.689Z,1.50
2023-04-07T13:30:00.965Z,1.80
2023-04-07T13:32:10.516Z,1.40
2023-04-07T13:34:13.682Z,1.77
2023-04-07T13:36:17.640Z,1.60
2023-04-07T13:38:20.517Z,1.60
2023-04-07T13:40:23.670Z,1.70
2023-04-07T13:42:26.635Z,1.70
2023-04-07T13:44:30.584Z,1.43
2023-04-07T13:46:34.206Z,1.70
2023-04-07T13:48:38.810Z,1.40
2023-04-07T13:50:42.073Z,1.83
2023-04-07T13:52:45.254Z,2.20
2023-04-07T13:54:48.409Z,1.50
2023-04-07T13:56:51.708Z,1.40
2023-04-07T13:58:54.692Z,2.50
2023-04-07T14:00:57.588Z,2.00
2023-04-07T14:03:00.774Z,1.70
2023-04-07T14:05:05.954Z,1.63
2023-04-07T14:07:08.846Z,1.83
2023-04-07T14:09:11.745Z,1.63
2023-04-07T14:11:17.971Z,1.70
2023-04-07T14:13:20.945Z,1.50
2023-04-07T14:15:24.244Z,1.60
2023-04-07T14:17:27.321Z,1.90
2023-04-07T14:19:30.926Z,1.93
2023-04-07T14:21:35.303Z,1.80
2023-04-07T14:23:39.294Z,1.53
2023-04-07T14:25:42.279Z,1.87
2023-04-07T14:27:45.206Z,2.30
2023-04-07T14:29:48.173Z,4.30
2023-04-07T14:31:51.558Z,4.37
2023-04-07T14:33:55.595Z,3.27
2023-04-07T14:35:58.597Z,2.20
2023-04-07T14:38:03.555Z,2.03
2023-04-07T14:40:08.537Z,1.70
2023-04-07T14:42:11.893Z,2.30
2023-04-07T14:44:14.801Z,2.30
2023-04-07T14:46:17.958Z,1.83
2023-04-07T14:48:21.043Z,1.53
2023-04-07T14:50:24.690Z,1.47
2023-04-07T14:52:27.785Z,1.90
2023-04-07T14:54:32.242Z,1.70
2023-04-07T14:56:35.158Z,1.90
2023-04-07T14:58:39.104Z,1.33
2023-04-07T15:00:42.555Z,3.00
2023-04-07T15:02:45.683Z,2.03
2023-04-07T15:04:48.988Z,1.47
2023-04-07T15:06:51.940Z,5.73
2023-04-07T15:08:55.001Z,3.40
2023-04-07T15:10:59.446Z,2.70
2023-04-07T15:13:03.208Z,1.47
2023-04-07T15:15:07.254Z,1.60
2023-04-07T15:17:10.192Z,1.67
2023-04-07T15:19:14.478Z,1.80
2023-04-07T15:21:18.384Z,1.93
2023-04-07T15:23:21.318Z,1.77
2023-04-07T15:25:24.265Z,1.70
2023-04-07T15:27:28.918Z,1.53
2023-04-07T15:29:32.294Z,1.37
2023-04-07T15:31:35.422Z,1.87
2023-04-07T15:33:39.515Z,1.73
2023-04-07T15:35:43.287Z,2.00
2023-04-07T15:37:46.454Z,2.00
2023-04-07T15:39:49.859Z,2.40
2023-04-07T15:41:52.813Z,2.50
2023-04-07T15:43:57.593Z,2.60
2023-04-07T15:46:00.888Z,3.30
2023-04-07T15:48:03.973Z,5.60
2023-04-07T15:50:08.319Z,3.20
2023-04-07T15:52:12.051Z,1.83
2023-04-07T15:54:15.150Z,2.10
2023-04-07T15:56:18.412Z,3.30
2023-04-07T15:58:21.571Z,3.90
2023-04-07T16:00:26.637Z,3.03
2023-04-07T16:02:30.046Z,2.07
2023-04-07T16:04:34.335Z,2.03
2023-04-07T16:06:37.274Z,2.13
2023-04-07T16:08:40.572Z,2.23
2023-04-07T16:10:43.542Z,2.50
2023-04-07T16:12:46.787Z,2.20
2023-04-07T16:14:50.447Z,2.30
2023-04-07T16:16:59.265Z,2.30
2023-04-07T16:19:02.755Z,1.80
2023-04-07T16:21:08.197Z,1.70
2023-04-07T16:23:11.207Z,2.27
2023-04-07T16:25:14.098Z,2.10
2023-04-07T16:27:17.043Z,2.10
2023-04-07T16:29:20.470Z,2.20
2023-04-07T16:31:23.471Z,1.90
2023-04-07T16:33:28.185Z,2.43
2023-04-07T16:35:31.999Z,2.23
2023-04-07T16:37:35.168Z,2.20
2023-04-07T16:39:38.654Z,2.17
2023-04-07T16:41:41.652Z,2.17
2023-04-07T16:43:45.034Z,2.27
2023-04-07T16:45:52.268Z,2.27
2023-04-07T16:47:57.714Z,2.33
2023-04-07T16:50:04.511Z,2.97
2023-04-07T16:52:07.628Z,2.90
2023-04-07T16:54:10.674Z,2.50
2023-04-07T16:56:16.688Z,1.90
2023-04-07T16:58:19.787Z,2.20
2023-04-07T17:00:22.783Z,1.97
2023-04-07T17:02:27.570Z,2.50
2023-04-07T17:04:30.861Z,2.70
2023-04-07T17:06:35.231Z,2.30
2023-04-07T17:08:39.096Z,2.77
2023-04-07T17:10:42.127Z,2.60
2023-04-07T17:12:45.494Z,2.23
2023-04-07T17:14:48.706Z,2.10
2023-04-07T17:16:51.845Z,3.00
2023-04-07T17:18:56.945Z,2.10
2023-04-07T17:21:07.936Z,2.50
2023-04-07T17:23:12.368Z,2.07
2023-04-07T17:25:19.021Z,2.10
2023-04-07T17:27:22.268Z,2.80
2023-04-07T17:29:29.178Z,2.67
2023-04-07T17:31:34.619Z,2.87
2023-04-07T17:33:37.601Z,2.40
2023-04-07T17:35:40.645Z,2.60
2023-04-07T17:37:44.148Z,2.63
2023-04-07T17:39:48.407Z,2.53
2023-04-07T17:41:51.862Z,2.70
2023-04-07T17:43:54.897Z,2.97
2023-04-07T17:45:58.026Z,2.40
2023-04-07T17:48:03.766Z,2.43
2023-04-07T17:50:08.071Z,3.13
2023-04-07T17:52:11.411Z,2.77
2023-04-07T17:54:14.333Z,2.90
2023-04-07T17:56:20.371Z,3.03
2023-04-07T17:58:23.631Z,3.27
2023-04-07T18:00:27.439Z,3.60
2023-04-07T18:02:30.920Z,3.33
2023-04-07T18:04:34.845Z,3.33
2023-04-07T18:06:38.094Z,3.53
2023-04-07T18:08:41.452Z,3.97
2023-04-07T18:10:44.432Z,3.60
2023-04-07T18:12:48.966Z,3.43
2023-04-07T18:14:52.246Z,3.77
2023-04-07T18:16:55.706Z,3.70
2023-04-07T18:19:00.472Z,3.50
2023-04-07T18:21:04.469Z,3.80
2023-04-07T18:23:08.307Z,4.20
2023-04-07T18:25:13.161Z,3.60
2023-04-07T18:27:27.667Z,3.93
2023-04-07T18:29:31.997Z,3.90
2023-04-07T18:31:34.952Z,4.20
2023-04-07T18:33:38.110Z,4.00
2023-04-07T18:35:41.268Z,5.20
2023-04-07T18:37:44.632Z,5.10
2023-04-07T18:39:48.045Z,4.80
2023-04-07T18:41:51.708Z,4.87
2023-04-07T18:43:54.962Z,5.30
2023-04-07T18:45:59.687Z,4.70
2023-04-07T18:48:03.092Z,4.67
2023-04-07T18:50:07.227Z,5.70
2023-04-07T18:52:11.236Z,5.50
2023-04-07T18:54:14.413Z,4.40
2023-04-07T18:56:17.884Z,5.50
2023-04-07T18:58:21.220Z,5.43
2023-04-07T19:00:24.184Z,6.70
2023-04-07T19:02:28.866Z,7.40
2023-04-07T19:04:31.906Z,6.70
2023-04-07T19:06:35.797Z,6.17
2023-04-07T19:08:38.925Z,5.93
2023-04-07T19:10:45.105Z,5.80
2023-04-07T19:12:48.033Z,6.00
2023-04-07T19:14:51.019Z,7.20
2023-04-07T19:16:54.627Z,5.40
2023-04-07T19:18:59.250Z,5.33
2023-04-07T19:21:02.437Z,7.20
2023-04-07T19:23:05.380Z,7.97
2023-04-07T19:25:12.534Z,7.67
2023-04-07T19:27:16.968Z,8.90
2023-04-07T19:29:20.370Z,7.57
2023-04-07T19:31:23.674Z,7.77
2023-04-07T19:33:26.636Z,8.50
2023-04-07T19:35:32.041Z,8.80
2023-04-07T19:37:37.624Z,10.57
2023-04-07T19:39:52.165Z,12.97
2023-04-07T19:42:06.790Z,13.73
2023-04-07T19:44:09.688Z,13.23
2023-04-07T19:46:12.787Z,13.97
2023-04-07T19:48:15.965Z,14.00
2023-04-07T19:50:19.894Z,17.23
2023-04-07T19:52:25.057Z,18.67
2023-04-07T19:54:28.142Z,16.97
2023-04-07T19:56:31.539Z,16.27
2023-04-07T19:58:34.751Z,16.70
2023-04-07T20:00:38.436Z,15.80
2023-04-07T20:02:41.629Z,16.43
2023-04-07T20:04:44.754Z,17.20
2023-04-07T20:06:47.704Z,17.50
2023-04-07T20:08:52.008Z,18.07
2023-04-07T20:10:54.972Z,17.40
2023-04-07T20:12:57.964Z,16.97
2023-04-07T20:15:01.604Z,16.90
2023-04-07T20:17:04.618Z,16.80
2023-04-07T20:19:07.627Z,17.17
2023-04-07T20:21:11.076Z,14.00
2023-04-07T20:23:22.093Z,13.90
2023-04-07T20:25:26.752Z,13.13
2023-04-07T20:27:31.756Z,13.60
2023-04-07T20:29:34.951Z,13.53
2023-04-07T20:31:37.874Z,13.90
2023-04-07T20:33:40.927Z,14.37
2023-04-07T20:35:44.242Z,14.73
2023-04-07T20:37:47.434Z,13.70
2023-04-07T20:39:50.924Z,13.27
2023-04-07T20:41:55.544Z,15.20
2023-04-07T20:43:58.889Z,14.63
2023-04-07T20:46:02.591Z,15.60
2023-04-07T20:48:05.855Z,15.10
2023-04-07T20:50:10.489Z,15.13
2023-04-07T20:52:13.427Z,12.80
2023-04-07T20:54:16.835Z,13.83
2023-04-07T20:56:19.928Z,13.93
2023-04-07T20:58:24.504Z,14.57
2023-04-07T21:00:27.472Z,16.00
2023-04-07T21:02:30.559Z,14.97
2023-04-07T21:04:33.921Z,14.50
2023-04-07T21:06:37.049Z,14.37
2023-04-07T21:08:40.231Z,13.20
2023-04-07T21:10:43.529Z,14.00
2023-04-07T21:12:47.369Z,13.40
2023-04-07T21:14:52.437Z,13.40
2023-04-07T21:16:55.506Z,14.00
2023-04-07T21:18:58.627Z,12.70
2023-04-07T21:21:02.993Z,12.67
2023-04-07T21:23:07.821Z,13.83
2023-04-07T21:25:11.582Z,14.50
2023-04-07T21:27:14.767Z,14.03
2023-04-07T21:29:17.761Z,13.67
2023-04-07T21:31:26.253Z,15.60
2023-04-07T21:33:29.606Z,13.67
2023-04-07T21:35:32.768Z,14.80
2023-04-07T21:37:36.159Z,16.20
2023-04-07T21:39:39.113Z,15.73
2023-04-07T21:41:42.352Z,15.53
2023-04-07T21:43:45.318Z,15.97
2023-04-07T21:45:48.398Z,15.80
2023-04-07T21:47:52.808Z,15.23
2023-04-07T21:49:57.950Z,14.93
2023-04-07T21:52:01.065Z,16.17
2023-04-07T21:54:04.264Z,16.30
2023-04-07T21:56:09.323Z,18.40
2023-04-07T21:58:12.238Z,20.97
2023-04-07T22:00:16.508Z,21.53
2023-04-07T22:02:20.411Z,21.47
2023-04-07T22:04:25.005Z,22.17
2023-04-07T22:06:28.076Z,20.37
2023-04-07T22:08:30.999Z,23.70
2023-04-07T22:10:34.017Z,19.87
2023-04-07T22:12:37.204Z,18.23
2023-04-07T22:14:40.175Z,21.37
2023-04-07T22:16:43.177Z,20.00
2023-04-07T22:18:46.230Z,19.17
2023-04-07T22:20:50.616Z,20.00
2023-04-07T22:22:57.226Z,24.50
2023-04-07T22:25:00.787Z,21.63
2023-04-07T22:27:03.783Z,18.57
2023-04-07T22:29:09.285Z,21.00
2023-04-07T22:31:12.413Z,20.00
2023-04-07T22:33:15.617Z,20.43
2023-04-07T22:35:19.021Z,17.80
2023-04-07T22:37:23.346Z,18.00
2023-04-07T22:39:26.775Z,18.10
2023-04-07T22:41:29.752Z,17.40
2023-04-07T22:43:32.863Z,16.20
2023-04-07T22:45:35.967Z,18.73
2023-04-07T22:47:39.672Z,17.07
2023-04-07T22:49:43.101Z,16.93
2023-04-07T22:51:48.626Z,14.77
2023-04-07T22:53:53.261Z,16.10
2023-04-07T22:55:56.295Z,15.50
2023-04-07T22:57:59.257Z,13.90
2023-04-07T23:00:02.293Z,14.60
2023-04-07T23:02:05.519Z,15.00
2023-04-07T23:04:08.732Z,14.77
2023-04-07T23:06:11.718Z,12.70
2023-04-07T23:08:14.794Z,15.13
2023-04-07T23:10:19.327Z,14.63
2023-04-07T23:12:22.297Z,16.67
2023-04-07T23:14:25.363Z,17.40
2023-04-07T23:16:28.298Z,17.60
2023-04-07T23:18:31.553Z,18.60
2023-04-07T23:20:34.624Z,17.23
2023-04-07T23:22:38.092Z,16.63
2023-04-07T23:24:41.809Z,17.10
2023-04-07T23:26:46.664Z,21.63
2023-04-07T23:28:49.834Z,20.70
2023-04-07T23:30:52.961Z,18.43
2023-04-07T23:32:56.192Z,17.87
2023-04-07T23:34:59.411Z,16.33
2023-04-07T23:37:02.867Z,15.57
2023-04-07T23:39:05.780Z,15.93
2023-04-07T23:41:09.326Z,15.77
2023-04-07T23:43:13.778Z,15.37
2023-04-07T23:45:18.160Z,14.30
2023-04-07T23:47:23.004Z,14.10
2023-04-07T23:49:26.218Z,15.90
2023-04-07T23:51:30.433Z,15.43
2023-04-07T23:53:33.464Z,14.87
2023-04-07T23:55:36.441Z,14.77
2023-04-07T23:57:39.682Z,16.73
2023-04-07T23:59:44.485Z,17.57
